createdAt,value
2017-12-13T00:01:51.276Z,32.50
2017-12-13T00:04:17.975Z,34.88
2017-12-13T00:06:44.028Z,30.77
2017-12-13T00:09:10.788Z,36.05
2017-12-13T00:11:37.476Z,35.10
2017-12-13T00:14:03.513Z,34.88
2017-12-13T00:16:29.566Z,34.97
2017-12-13T00:18:56.297Z,33.65
2017-12-13T00:21:23.003Z,34.58
2017-12-13T00:23:49.175Z,36.78
2017-12-13T00:26:15.136Z,36.33
2017-12-13T00:28:41.117Z,37.73
2017-12-13T00:31:07.095Z,37.92
2017-12-13T00:33:33.104Z,37.15
2017-12-13T00:35:59.063Z,39.75
2017-12-13T00:38:25.040Z,39.05
2017-12-13T00:40:51.184Z,38.10
2017-12-13T00:43:17.431Z,38.53
2017-12-13T00:45:43.426Z,43.55
2017-12-13T00:48:09.399Z,41.17
2017-12-13T00:50:36.365Z,45.50
2017-12-13T00:53:02.352Z,44.20
2017-12-13T00:55:29.085Z,42.85
2017-12-13T00:57:56.026Z,42.60
2017-12-13T01:00:21.973Z,44.50
2017-12-13T01:02:47.941Z,41.37
2017-12-13T01:05:13.932Z,41.47
2017-12-13T01:07:39.968Z,40.35
2017-12-13T01:10:05.949Z,41.50
2017-12-13T01:12:32.686Z,40.22
2017-12-13T01:14:59.420Z,40.03
2017-12-13T01:17:26.128Z,43.10
2017-12-13T01:19:52.097Z,44.17
2017-12-13T01:22:18.134Z,40.95
2017-12-13T01:24:44.108Z,45.60
2017-12-13T01:27:11.569Z,40.63
2017-12-13T01:29:38.380Z,40.03
2017-12-13T01:32:04.401Z,39.42
2017-12-13T01:34:30.373Z,38.90
2017-12-13T01:36:57.150Z,36.95
2017-12-13T01:39:23.156Z,37.72
2017-12-13T01:41:49.136Z,38.22
2017-12-13T01:44:15.933Z,36.58
2017-12-13T01:46:42.120Z,36.33
2017-12-13T01:49:08.840Z,34.28
2017-12-13T01:51:34.930Z,35.55
2017-12-13T01:54:00.955Z,39.97
2017-12-13T01:56:26.977Z,37.92
2017-12-13T01:58:52.997Z,36.50
2017-12-13T02:01:18.985Z,36.30
2017-12-13T02:03:44.977Z,34.37
2017-12-13T02:06:10.986Z,35.08
2017-12-13T02:08:38.444Z,34.90
2017-12-13T02:11:04.460Z,37.58
2017-12-13T02:13:30.459Z,37.05
2017-12-13T02:15:56.620Z,37.30
2017-12-13T02:18:22.736Z,35.25
2017-12-13T02:20:48.713Z,37.63
2017-12-13T02:23:14.709Z,36.70
2017-12-13T02:25:41.420Z,35.03
2017-12-13T02:28:07.450Z,36.37
2017-12-13T02:30:33.430Z,37.92
2017-12-13T02:32:59.426Z,36.45
2017-12-13T02:35:25.406Z,36.78
2017-12-13T02:37:51.388Z,32.67
2017-12-13T02:40:29.929Z,39.35
2017-12-13T02:42:55.916Z,35.58
2017-12-13T02:45:21.873Z,35.90
2017-12-13T02:47:47.832Z,33.10
2017-12-13T02:50:14.564Z,34.00
2017-12-13T02:52:41.276Z,33.53
2017-12-13T02:55:07.263Z,31.58
2017-12-13T02:57:33.238Z,30.73
2017-12-13T02:59:59.192Z,32.27
2017-12-13T03:02:25.181Z,29.90
2017-12-13T03:04:51.224Z,31.20
2017-12-13T03:07:24.963Z,30.40
2017-12-13T03:09:50.940Z,36.42
2017-12-13T03:12:17.653Z,33.92
2017-12-13T03:14:43.614Z,29.50
2017-12-13T03:17:10.516Z,33.10
2017-12-13T03:19:36.490Z,30.95
2017-12-13T03:22:02.457Z,34.30
2017-12-13T03:24:28.594Z,30.25
2017-12-13T03:26:54.559Z,32.00
2017-12-13T03:29:20.571Z,29.67
2017-12-13T03:31:46.577Z,31.50
2017-12-13T03:34:13.284Z,33.90
2017-12-13T03:36:39.527Z,32.15
2017-12-13T03:39:05.491Z,33.65
2017-12-13T03:41:31.444Z,33.77
2017-12-13T03:43:57.464Z,33.20
2017-12-13T03:46:23.578Z,34.90
2017-12-13T03:48:49.536Z,33.17
2017-12-13T03:51:15.500Z,34.65
2017-12-13T03:53:41.447Z,34.20
2017-12-13T03:56:07.416Z,32.88
2017-12-13T03:58:34.132Z,35.63
2017-12-13T04:01:00.109Z,34.55
2017-12-13T04:03:26.097Z,37.55
2017-12-13T04:05:52.833Z,34.40
2017-12-13T04:08:19.581Z,36.17
2017-12-13T04:10:46.329Z,35.20
2017-12-13T04:13:12.342Z,36.30
2017-12-13T04:15:39.089Z,34.17
2017-12-13T04:18:05.297Z,34.78
2017-12-13T04:20:32.004Z,35.17
2017-12-13T04:22:58.028Z,39.60
2017-12-13T04:25:24.203Z,37.30
2017-12-13T04:27:50.933Z,41.25
2017-12-13T04:30:17.671Z,36.97
2017-12-13T04:32:43.660Z,38.28
2017-12-13T04:35:09.612Z,40.28
2017-12-13T04:37:36.360Z,40.15
2017-12-13T04:40:03.099Z,36.85
2017-12-13T04:42:29.792Z,41.33
2017-12-13T04:44:55.783Z,41.60
2017-12-13T04:47:21.748Z,40.75
2017-12-13T04:49:49.212Z,38.00
2017-12-13T04:52:15.451Z,35.60
2017-12-13T04:54:42.147Z,35.93
2017-12-13T04:57:08.111Z,39.17
2017-12-13T04:59:34.988Z,39.37
2017-12-13T05:02:00.955Z,38.03
2017-12-13T05:04:26.915Z,37.33
2017-12-13T05:06:52.933Z,36.60
2017-12-13T05:09:18.896Z,43.17
2017-12-13T05:11:44.862Z,39.73
2017-12-13T05:14:11.590Z,36.03
2017-12-13T05:16:38.350Z,36.80
2017-12-13T05:19:05.072Z,36.75
2017-12-13T05:21:32.113Z,36.95
2017-12-13T05:23:58.076Z,36.75
2017-12-13T05:26:24.026Z,32.70
2017-12-13T05:28:50.044Z,33.33
2017-12-13T05:31:15.992Z,33.03
2017-12-13T05:33:41.964Z,36.25
2017-12-13T05:36:08.243Z,33.53
2017-12-13T05:38:34.260Z,32.75
2017-12-13T05:41:00.221Z,31.95
2017-12-13T05:43:26.189Z,32.90
2017-12-13T05:45:52.267Z,33.37
2017-12-13T05:48:18.272Z,38.67
2017-12-13T05:50:44.967Z,31.67
2017-12-13T05:53:11.205Z,30.92
2017-12-13T05:55:37.228Z,32.63
2017-12-13T05:58:03.192Z,33.65
2017-12-13T06:03:02.784Z,27.50
2017-12-13T06:05:28.752Z,29.60
2017-12-13T06:07:54.728Z,29.63
2017-12-13T06:10:20.724Z,29.87
2017-12-13T06:12:46.704Z,31.58
2017-12-13T06:15:12.716Z,27.15
2017-12-13T06:17:39.461Z,29.50
2017-12-13T06:20:06.208Z,26.60
2017-12-13T06:22:32.176Z,24.08
2017-12-13T06:24:58.383Z,30.10
2017-12-13T06:27:24.352Z,29.00
2017-12-13T06:29:51.064Z,25.50
2017-12-13T06:32:17.053Z,24.40
2017-12-13T06:34:43.040Z,30.05
2017-12-13T06:37:09.760Z,24.37
2017-12-13T06:39:35.772Z,25.40
2017-12-13T06:42:01.784Z,25.00
2017-12-13T06:44:27.740Z,26.30
2017-12-13T06:46:54.495Z,23.60
2017-12-13T06:49:21.193Z,27.73
2017-12-13T06:51:47.436Z,24.55
2017-12-13T06:54:14.173Z,24.87
2017-12-13T06:56:40.141Z,23.10
2017-12-13T06:59:06.144Z,23.65
2017-12-13T07:01:32.116Z,24.10
2017-12-13T07:03:58.092Z,22.42
2017-12-13T07:06:24.100Z,22.33
2017-12-13T07:08:50.804Z,20.42
2017-12-13T07:11:16.804Z,19.40
2017-12-13T07:13:42.786Z,22.85
2017-12-13T07:16:09.495Z,21.25
2017-12-13T07:18:35.445Z,22.48
2017-12-13T07:21:02.176Z,20.33
2017-12-13T07:23:28.884Z,19.33
2017-12-13T07:25:54.832Z,20.00
2017-12-13T07:28:21.856Z,19.05
2017-12-13T07:30:48.166Z,17.25
2017-12-13T07:33:14.152Z,22.05
2017-12-13T07:35:40.142Z,17.35
2017-12-13T07:38:06.122Z,16.62
2017-12-13T07:40:32.103Z,16.10
2017-12-13T07:42:59.272Z,16.80
2017-12-13T07:45:25.792Z,17.00
2017-12-13T07:47:51.756Z,16.95
2017-12-13T07:50:17.756Z,15.38
2017-12-13T07:52:43.744Z,14.50
2017-12-13T07:55:10.478Z,14.60
2017-12-13T07:57:37.252Z,16.15
2017-12-13T08:00:03.241Z,13.90
2017-12-13T08:02:29.959Z,14.67
2017-12-13T08:04:55.995Z,18.30
2017-12-13T08:07:21.922Z,24.10
2017-12-13T08:09:48.632Z,15.10
2017-12-13T08:12:14.624Z,14.27
2017-12-13T08:14:40.587Z,10.40
2017-12-13T08:17:06.552Z,10.70
2017-12-13T08:19:32.544Z,11.20
2017-12-13T08:21:59.249Z,11.25
2017-12-13T08:24:25.228Z,9.48
2017-12-13T08:26:51.316Z,9.65
2017-12-13T08:29:17.313Z,15.53
2017-12-13T08:31:43.305Z,9.70
2017-12-13T08:34:09.319Z,10.30
2017-12-13T08:36:35.303Z,12.73
2017-12-13T08:39:01.326Z,10.45
2017-12-13T08:41:27.337Z,10.82
2017-12-13T08:43:53.303Z,11.38
2017-12-13T08:46:19.296Z,11.55
2017-12-13T08:48:46.756Z,10.40
2017-12-13T08:51:13.511Z,10.32
2017-12-13T08:53:40.231Z,10.70
2017-12-13T08:56:06.471Z,12.77
2017-12-13T08:58:33.218Z,10.45
2017-12-13T09:00:59.935Z,11.85
2017-12-13T09:03:26.160Z,11.43
2017-12-13T09:05:52.128Z,8.00
2017-12-13T09:08:18.124Z,9.23
2017-12-13T09:10:45.775Z,10.70
2017-12-13T09:13:12.543Z,9.27
2017-12-13T09:15:38.469Z,31.80
2017-12-13T09:18:04.447Z,36.58
2017-12-13T09:20:30.437Z,11.55
2017-12-13T09:22:56.399Z,8.43
2017-12-13T09:25:23.136Z,77.28
2017-12-13T09:27:49.136Z,21.30
2017-12-13T09:30:15.104Z,8.02
2017-12-13T09:32:41.116Z,8.35
2017-12-13T09:35:07.840Z,8.38
2017-12-13T09:37:34.555Z,6.65
2017-12-13T09:40:00.556Z,7.78
2017-12-13T09:42:26.540Z,8.68
2017-12-13T09:44:53.250Z,5.30
2017-12-13T09:47:19.492Z,7.37
2017-12-13T09:49:46.188Z,7.97
2017-12-13T09:52:12.164Z,7.12
2017-12-13T09:54:38.880Z,6.70
2017-12-13T09:57:04.896Z,7.15
2017-12-13T09:59:30.866Z,7.60
2017-12-13T10:01:56.870Z,5.57
2017-12-13T10:04:23.564Z,12.57
2017-12-13T10:06:49.553Z,5.85
2017-12-13T10:09:15.540Z,8.32
2017-12-13T10:11:43.049Z,10.75
2017-12-13T10:14:09.024Z,8.57
2017-12-13T10:16:35.740Z,8.20
2017-12-13T10:19:01.713Z,7.67
2017-12-13T10:21:27.676Z,9.60
2017-12-13T10:23:53.670Z,7.35
2017-12-13T10:26:19.626Z,6.93
2017-12-13T10:28:45.584Z,7.75
2017-12-13T10:31:11.561Z,9.60
2017-12-13T10:33:37.557Z,7.43
2017-12-13T10:36:03.791Z,5.75
2017-12-13T10:38:29.746Z,11.23
2017-12-13T10:40:56.459Z,6.57
2017-12-13T10:43:22.421Z,13.52
2017-12-13T10:45:48.392Z,9.25
2017-12-13T10:48:14.384Z,11.57
2017-12-13T10:50:40.490Z,7.97
2017-12-13T10:53:07.224Z,8.00
2017-12-13T10:55:34.064Z,8.77
2017-12-13T10:58:00.788Z,7.00
2017-12-13T11:00:26.780Z,7.03
2017-12-13T11:02:52.746Z,7.57
2017-12-13T11:05:19.696Z,6.30
2017-12-13T11:07:46.420Z,9.52
2017-12-13T11:10:13.124Z,8.90
2017-12-13T11:12:39.358Z,8.32
2017-12-13T11:15:05.332Z,7.03
2017-12-13T11:17:31.287Z,10.57
2017-12-13T11:19:57.641Z,15.60
2017-12-13T11:22:23.616Z,11.82
2017-12-13T11:24:49.576Z,11.93
2017-12-13T11:27:15.585Z,8.48
2017-12-13T11:29:41.600Z,8.15
2017-12-13T11:32:07.574Z,9.60
2017-12-13T11:34:33.572Z,10.07
2017-12-13T11:36:59.550Z,12.65
2017-12-13T11:39:25.500Z,9.48
2017-12-13T11:41:51.488Z,9.75
2017-12-13T11:44:17.476Z,7.40
2017-12-13T11:46:44.194Z,10.35
2017-12-13T11:49:10.535Z,7.73
2017-12-13T11:51:36.504Z,10.77
2017-12-13T11:54:05.337Z,8.32
2017-12-13T11:56:31.336Z,10.97
2017-12-13T11:58:57.324Z,9.10
2017-12-13T12:01:23.339Z,11.35
2017-12-13T12:03:49.328Z,10.40
2017-12-13T12:06:15.288Z,12.02
2017-12-13T12:08:41.287Z,9.95
2017-12-13T12:11:08.312Z,8.80
2017-12-13T12:13:34.276Z,8.82
2017-12-13T12:16:00.277Z,9.48
2017-12-13T12:18:27.001Z,9.40
2017-12-13T12:20:52.988Z,12.32
2017-12-13T12:23:18.989Z,11.30
2017-12-13T12:25:44.988Z,12.27
2017-12-13T12:28:11.732Z,12.10
2017-12-13T12:30:37.696Z,10.05
2017-12-13T12:33:03.697Z,12.20
2017-12-13T12:35:29.684Z,9.13
2017-12-13T12:37:56.385Z,8.05
2017-12-13T12:40:23.605Z,14.43
2017-12-13T12:42:49.630Z,10.75
2017-12-13T12:45:15.637Z,10.25
2017-12-13T12:47:41.608Z,13.00
2017-12-13T12:50:08.358Z,8.75
2017-12-13T12:52:34.326Z,10.47
2017-12-13T12:55:00.300Z,11.15
2017-12-13T12:57:26.272Z,12.15
2017-12-13T12:59:52.262Z,11.90
2017-12-13T13:02:18.976Z,11.38
2017-12-13T13:04:44.941Z,9.93
2017-12-13T13:07:10.896Z,12.13
2017-12-13T13:09:36.881Z,12.40
2017-12-13T13:12:02.836Z,10.02
2017-12-13T13:14:28.825Z,13.93
2017-12-13T13:16:54.798Z,9.07
2017-12-13T13:19:20.765Z,8.25
2017-12-13T13:21:46.785Z,11.50
2017-12-13T13:24:13.544Z,9.13
2017-12-13T13:26:39.520Z,8.03
2017-12-13T13:29:05.513Z,7.75
2017-12-13T13:31:31.686Z,10.05
2017-12-13T13:33:57.692Z,9.98
2017-12-13T13:36:24.421Z,9.00
2017-12-13T13:38:50.430Z,9.48
2017-12-13T13:41:16.388Z,10.07
2017-12-13T13:43:43.088Z,9.60
2017-12-13T13:46:09.076Z,7.97
2017-12-13T13:48:35.048Z,7.10
2017-12-13T13:51:01.812Z,8.77
2017-12-13T13:53:35.486Z,8.77
2017-12-13T13:56:01.497Z,8.35
2017-12-13T13:58:27.466Z,8.90
2017-12-13T14:00:53.476Z,10.20
2017-12-13T14:03:20.201Z,6.60
2017-12-13T14:05:46.940Z,7.93
2017-12-13T14:08:12.976Z,8.82
2017-12-13T14:10:39.683Z,9.40
2017-12-13T14:13:05.844Z,9.73
2017-12-13T14:15:32.570Z,7.78
2017-12-13T14:17:59.272Z,8.30
2017-12-13T14:20:25.286Z,7.90
2017-12-13T14:22:51.264Z,12.23
2017-12-13T14:25:18.004Z,8.73
2017-12-13T14:27:45.044Z,6.97
2017-12-13T14:30:11.066Z,7.18
2017-12-13T14:32:37.812Z,6.35
2017-12-13T14:35:04.567Z,8.25
2017-12-13T14:37:30.537Z,7.60
2017-12-13T14:39:56.530Z,7.12
2017-12-13T14:42:22.509Z,7.90
2017-12-13T14:44:49.225Z,7.68
2017-12-13T14:47:15.196Z,7.75
2017-12-13T14:49:41.188Z,7.35
2017-12-13T14:52:07.913Z,7.70
2017-12-13T14:54:33.876Z,8.55
2017-12-13T14:57:00.103Z,7.33
2017-12-13T14:59:26.069Z,8.67
2017-12-13T15:01:52.040Z,7.57
2017-12-13T15:04:18.040Z,8.23
2017-12-13T15:06:44.739Z,7.50
2017-12-13T15:09:10.750Z,6.70
2017-12-13T15:11:36.723Z,7.37
2017-12-13T15:14:03.447Z,8.70
2017-12-13T15:16:30.201Z,8.50
2017-12-13T15:18:56.912Z,8.10
2017-12-13T15:21:22.868Z,7.30
2017-12-13T15:23:49.892Z,7.43
2017-12-13T15:26:16.616Z,6.80
2017-12-13T15:28:42.626Z,5.87
2017-12-13T15:31:08.758Z,8.38
2017-12-13T15:33:34.733Z,6.87
2017-12-13T15:36:00.704Z,5.47
2017-12-13T15:38:26.945Z,8.60
2017-12-13T15:40:52.916Z,9.45
2017-12-13T15:43:18.873Z,6.55
2017-12-13T15:45:44.828Z,6.50
2017-12-13T15:48:11.575Z,7.22
2017-12-13T15:50:38.344Z,7.00
2017-12-13T15:53:05.037Z,7.82
2017-12-13T15:55:31.774Z,6.18
2017-12-13T15:57:58.510Z,7.43
2017-12-13T16:00:25.286Z,6.85
2017-12-13T16:02:51.264Z,5.30
2017-12-13T16:05:17.237Z,5.87
2017-12-13T16:07:43.624Z,6.68
2017-12-13T16:10:10.336Z,6.47
2017-12-13T16:12:36.295Z,5.25
2017-12-13T16:15:03.022Z,4.80
2017-12-13T16:17:28.988Z,6.50
2017-12-13T16:19:54.945Z,5.05
2017-12-13T16:22:20.929Z,5.40
2017-12-13T16:24:46.882Z,5.10
2017-12-13T16:27:12.865Z,5.78
2017-12-13T16:29:38.860Z,5.20
2017-12-13T16:32:05.605Z,5.43
2017-12-13T16:34:32.313Z,6.20
2017-12-13T16:36:58.323Z,4.90
2017-12-13T16:39:24.376Z,4.90
2017-12-13T16:41:51.102Z,7.82
2017-12-13T16:44:17.083Z,5.77
2017-12-13T16:46:43.084Z,6.93
2017-12-13T16:49:09.102Z,7.00
2017-12-13T16:51:35.088Z,4.70
2017-12-13T16:54:01.081Z,4.78
2017-12-13T16:56:27.364Z,4.95
2017-12-13T16:58:54.068Z,5.78
2017-12-13T17:01:20.060Z,7.35
2017-12-13T17:03:46.033Z,5.37
2017-12-13T17:06:12.757Z,4.00
2017-12-13T17:08:40.212Z,4.87
2017-12-13T17:11:06.201Z,4.00
2017-12-13T17:13:32.176Z,4.80
2017-12-13T17:15:58.891Z,5.03
2017-12-13T17:18:24.945Z,4.20
2017-12-13T17:20:51.684Z,6.15
2017-12-13T17:23:18.425Z,4.75
2017-12-13T17:25:45.608Z,4.25
2017-12-13T17:28:11.594Z,3.93
2017-12-13T17:30:38.329Z,4.90
2017-12-13T17:33:05.040Z,5.07
2017-12-13T17:35:38.090Z,4.05
2017-12-13T17:38:04.041Z,5.00
2017-12-13T17:40:30.033Z,5.20
2017-12-13T17:42:56.055Z,3.90
2017-12-13T17:45:22.072Z,3.83
2017-12-13T17:47:48.318Z,3.60
2017-12-13T17:50:14.296Z,3.70
2017-12-13T17:52:40.995Z,3.90
2017-12-13T17:55:07.028Z,3.60
2017-12-13T17:57:32.996Z,3.40
2017-12-13T17:59:59.026Z,3.92
2017-12-13T18:02:25.315Z,3.50
2017-12-13T18:04:52.040Z,4.60
2017-12-13T18:07:18.037Z,4.37
2017-12-13T18:09:45.124Z,3.80
2017-12-13T18:12:11.865Z,3.95
2017-12-13T18:14:37.881Z,28.15
2017-12-13T18:17:04.625Z,28.55
2017-12-13T18:19:38.336Z,59.33
2017-12-13T18:22:05.432Z,14.45
2017-12-13T18:24:31.413Z,4.00
2017-12-13T18:26:57.418Z,3.53
2017-12-13T18:29:24.168Z,3.50
2017-12-13T18:31:50.176Z,3.70
2017-12-13T18:34:16.892Z,3.50
2017-12-13T18:36:43.241Z,4.60
2017-12-13T18:39:10.010Z,3.65
2017-12-13T18:41:35.972Z,3.87
2017-12-13T18:44:02.165Z,4.57
2017-12-13T18:46:28.841Z,4.90
2017-12-13T18:48:54.879Z,6.32
2017-12-13T18:51:20.845Z,5.80
2017-12-13T18:53:46.813Z,11.47
2017-12-13T18:56:12.779Z,7.60
2017-12-13T18:58:38.774Z,7.00
2017-12-13T19:01:05.495Z,8.60
2017-12-13T19:03:31.467Z,9.80
2017-12-13T19:05:57.465Z,8.40
2017-12-13T19:08:24.178Z,11.82
2017-12-13T19:10:50.352Z,12.80
2017-12-13T19:13:16.343Z,11.63
2017-12-13T19:15:43.205Z,10.10
2017-12-13T19:18:10.018Z,10.07
2017-12-13T19:20:36.005Z,10.73
2017-12-13T19:23:02.049Z,11.35
2017-12-13T19:25:28.085Z,13.00
2017-12-13T19:27:54.085Z,11.30
2017-12-13T19:30:20.107Z,12.00
2017-12-13T19:32:46.092Z,15.50
2017-12-13T19:35:12.061Z,16.33
2017-12-13T19:37:38.409Z,13.52
2017-12-13T19:40:05.170Z,13.85
2017-12-13T19:42:31.158Z,13.85
2017-12-13T19:44:57.883Z,14.80
2017-12-13T19:47:30.874Z,15.65
2017-12-13T19:49:56.833Z,15.38
2017-12-13T19:52:22.912Z,18.15
2017-12-13T19:54:48.881Z,16.55
2017-12-13T19:57:14.921Z,18.42
2017-12-13T19:59:40.911Z,17.55
2017-12-13T20:02:07.620Z,15.43
2017-12-13T20:04:33.601Z,16.50
2017-12-13T20:06:59.646Z,17.40
2017-12-13T20:09:25.620Z,21.20
2017-12-13T20:11:52.550Z,17.10
2017-12-13T20:14:18.524Z,16.50
2017-12-13T20:16:44.480Z,18.50
2017-12-13T20:19:10.817Z,17.40
2017-12-13T20:21:36.793Z,17.70
2017-12-13T20:24:02.757Z,17.60
2017-12-13T20:26:28.732Z,18.42
2017-12-13T20:28:54.699Z,18.30
2017-12-13T20:31:21.028Z,19.55
2017-12-13T20:33:47.017Z,17.95
2017-12-13T20:36:13.007Z,20.40
2017-12-13T20:38:38.982Z,17.77
2017-12-13T20:41:04.960Z,18.70
2017-12-13T20:43:30.985Z,18.30
2017-12-13T20:45:56.957Z,18.00
2017-12-13T20:48:22.943Z,19.80
2017-12-13T20:50:48.982Z,18.15
2017-12-13T20:53:14.981Z,18.37
2017-12-13T20:55:40.965Z,19.70
2017-12-13T20:58:07.704Z,20.30
2017-12-13T21:00:34.424Z,18.70
2017-12-13T21:03:00.406Z,19.62
2017-12-13T21:05:26.380Z,18.23
2017-12-13T21:07:53.140Z,18.12
2017-12-13T21:10:19.124Z,19.95
2017-12-13T21:12:45.104Z,13.82
2017-12-13T21:15:11.196Z,17.07
2017-12-13T21:17:37.921Z,15.48
2017-12-13T21:20:04.620Z,17.00
2017-12-13T21:22:30.587Z,16.15
2017-12-13T21:24:57.303Z,14.77
2017-12-13T21:27:23.305Z,17.67
2017-12-13T21:29:49.277Z,14.30
2017-12-13T21:32:16.000Z,12.60
2017-12-13T21:34:41.984Z,12.87
2017-12-13T21:37:07.969Z,13.82
2017-12-13T21:39:33.965Z,9.27
2017-12-13T21:42:00.863Z,11.50
2017-12-13T21:44:26.869Z,9.88
2017-12-13T21:46:52.849Z,8.45
2017-12-13T21:49:18.832Z,9.50
2017-12-13T21:51:44.793Z,9.13
2017-12-13T21:54:11.511Z,9.18
2017-12-13T21:56:37.905Z,10.07
2017-12-13T21:59:03.864Z,8.43
2017-12-13T22:01:29.834Z,8.57
2017-12-13T22:03:56.442Z,7.10
2017-12-13T22:06:23.171Z,10.15
2017-12-13T22:08:49.178Z,7.87
2017-12-13T22:11:15.181Z,7.65
2017-12-13T22:13:41.153Z,8.20
2017-12-13T22:16:07.865Z,8.13
2017-12-13T22:18:33.841Z,8.35
2017-12-13T22:20:59.812Z,7.90
2017-12-13T22:23:25.805Z,7.27
2017-12-13T22:25:51.782Z,7.20
2017-12-13T22:28:18.576Z,7.78
2017-12-13T22:30:44.581Z,7.75
2017-12-13T22:33:10.557Z,7.55
2017-12-13T22:35:37.289Z,7.95
2017-12-13T22:38:04.036Z,8.65
2017-12-13T22:40:30.752Z,8.90
2017-12-13T22:42:56.728Z,38.17
2017-12-13T22:45:22.732Z,18.00
2017-12-13T22:47:49.428Z,8.10
2017-12-13T22:50:15.416Z,8.73
2017-12-13T22:52:41.548Z,8.50
2017-12-13T22:55:07.539Z,9.10
2017-12-13T22:57:33.519Z,8.02
2017-12-13T22:59:59.520Z,7.60
2017-12-13T23:02:25.482Z,7.37
2017-12-13T23:04:52.207Z,7.20
2017-12-13T23:07:18.218Z,7.10
2017-12-13T23:09:44.199Z,6.70
2017-12-13T23:12:10.182Z,6.30
2017-12-13T23:14:36.420Z,5.82
2017-12-13T23:17:03.175Z,5.70
2017-12-13T23:19:29.142Z,5.60
2017-12-13T23:21:55.516Z,5.15
2017-12-13T23:24:22.266Z,5.90
2017-12-13T23:26:48.242Z,5.22
2017-12-13T23:29:14.432Z,4.43
2017-12-13T23:31:40.393Z,6.07
2017-12-13T23:34:06.389Z,4.53
2017-12-13T23:36:32.560Z,4.10
2017-12-13T23:38:59.292Z,3.97
2017-12-13T23:41:25.305Z,3.55
2017-12-13T23:43:51.481Z,3.40
2017-12-13T23:46:17.450Z,3.70
2017-12-13T23:48:43.440Z,3.60
2017-12-13T23:51:09.496Z,3.22
2017-12-13T23:53:35.521Z,3.63
2017-12-13T23:56:01.500Z,2.55
2017-12-13T23:58:27.525Z,3.03
